createdAt,value
2018-07-08T00:00:22.414Z,68.30
2018-07-08T00:02:24.517Z,68.00
2018-07-08T00:04:26.590Z,68.50
2018-07-08T00:06:28.669Z,70.00
2018-07-08T00:08:30.729Z,69.40
2018-07-08T00:10:33.398Z,69.30
2018-07-08T00:12:35.488Z,70.30
2018-07-08T00:14:37.565Z,71.80
2018-07-08T00:16:39.677Z,73.20
2018-07-08T00:18:41.741Z,74.20
2018-07-08T00:20:43.822Z,74.80
2018-07-08T00:22:45.889Z,75.60
2018-07-08T00:24:47.953Z,75.20
2018-07-08T00:26:50.050Z,76.60
2018-07-08T00:28:52.117Z,75.50
2018-07-08T00:30:54.192Z,74.50
2018-07-08T00:32:56.249Z,75.60
2018-07-08T00:34:58.342Z,75.10
2018-07-08T00:37:00.434Z,74.60
2018-07-08T00:39:02.753Z,73.40
2018-07-08T00:41:04.865Z,73.50
2018-07-08T00:43:06.930Z,72.70
2018-07-08T00:45:09.016Z,74.40
2018-07-08T00:47:11.077Z,74.10
2018-07-08T00:49:13.153Z,72.60
2018-07-08T00:51:15.235Z,74.00
2018-07-08T00:53:17.320Z,74.60
2018-07-08T00:55:19.393Z,74.40
2018-07-08T00:57:21.469Z,75.10
2018-07-08T00:59:23.547Z,75.30
2018-07-08T01:01:25.634Z,73.50
2018-07-08T01:03:27.700Z,75.50
2018-07-08T01:05:30.037Z,74.70
2018-07-08T01:07:32.102Z,75.20
2018-07-08T01:09:34.173Z,75.40
2018-07-08T01:11:36.245Z,74.80
2018-07-08T01:13:38.323Z,77.20
2018-07-08T01:15:40.392Z,75.40
2018-07-08T01:17:42.559Z,75.00
2018-07-08T01:19:44.641Z,73.90
2018-07-08T01:23:49.046Z,76.70
2018-07-08T01:26:02.785Z,77.00
2018-07-08T01:28:04.846Z,75.80
2018-07-08T01:30:07.125Z,74.90
2018-07-08T01:34:11.402Z,73.50
2018-07-08T01:36:13.463Z,74.50
2018-07-08T01:38:15.545Z,73.20
2018-07-08T01:40:17.621Z,75.40
2018-07-08T01:42:19.735Z,74.90
2018-07-08T01:44:21.867Z,75.00
2018-07-08T01:46:23.894Z,77.50
2018-07-08T01:48:26.069Z,80.80
2018-07-08T01:50:28.302Z,81.70
2018-07-08T01:52:30.448Z,82.90
2018-07-08T01:54:32.530Z,80.70
2018-07-08T01:56:34.671Z,83.80
2018-07-08T01:58:36.736Z,84.20
2018-07-08T02:00:38.830Z,83.70
2018-07-08T02:02:40.913Z,84.20
2018-07-08T02:04:42.975Z,83.60
2018-07-08T02:06:45.021Z,83.50
2018-07-08T02:08:47.130Z,84.30
2018-07-08T02:10:49.362Z,85.60
2018-07-08T02:12:51.609Z,83.70
2018-07-08T02:14:53.645Z,83.90
2018-07-08T02:16:55.737Z,84.20
2018-07-08T02:18:57.800Z,81.90
2018-07-08T02:20:59.885Z,82.60
2018-07-08T02:23:01.999Z,81.60
2018-07-08T02:25:04.088Z,81.70
2018-07-08T02:27:06.301Z,82.30
2018-07-08T02:29:08.398Z,83.80
2018-07-08T02:31:10.474Z,82.70
2018-07-08T02:33:12.548Z,81.80
2018-07-08T02:35:14.608Z,82.10
2018-07-08T02:37:16.701Z,82.00
2018-07-08T02:39:18.782Z,81.00
2018-07-08T02:41:24.185Z,81.60
2018-07-08T02:43:26.263Z,80.90
2018-07-08T02:45:28.328Z,81.00
2018-07-08T02:47:30.379Z,82.00
2018-07-08T02:49:32.451Z,80.80
2018-07-08T02:51:34.912Z,82.90
2018-07-08T02:53:36.967Z,82.00
2018-07-08T02:55:39.026Z,82.20
2018-07-08T02:57:41.102Z,82.70
2018-07-08T02:59:43.159Z,82.60
2018-07-08T03:01:45.221Z,84.70
2018-07-08T03:03:47.441Z,84.70
2018-07-08T03:05:49.525Z,84.10
2018-07-08T03:07:51.700Z,84.60
2018-07-08T03:09:53.788Z,85.20
2018-07-08T03:11:55.870Z,86.00
2018-07-08T03:13:57.976Z,85.20
2018-07-08T03:16:00.067Z,87.20
2018-07-08T03:18:02.153Z,87.00
2018-07-08T03:20:04.333Z,86.60
2018-07-08T03:22:06.409Z,87.80
2018-07-08T03:24:08.486Z,87.80
2018-07-08T03:26:10.575Z,88.00
2018-07-08T03:28:12.686Z,90.00
2018-07-08T03:30:14.769Z,90.70
2018-07-08T03:32:16.922Z,90.90
2018-07-08T03:34:18.965Z,92.00
2018-07-08T03:36:21.042Z,93.00
2018-07-08T03:38:23.226Z,93.50
2018-07-08T03:40:25.298Z,94.20
2018-07-08T03:42:27.384Z,94.30
2018-07-08T03:44:29.482Z,94.60
2018-07-08T03:46:31.582Z,94.50
2018-07-08T03:48:33.666Z,94.30
2018-07-08T03:50:35.753Z,94.60
2018-07-08T03:52:37.815Z,94.30
2018-07-08T03:54:39.882Z,94.50
2018-07-08T03:56:42.088Z,94.40
2018-07-08T03:58:44.168Z,94.80
2018-07-08T04:00:46.277Z,94.10
2018-07-08T04:02:48.361Z,94.00
2018-07-08T04:04:50.446Z,94.30
2018-07-08T04:06:52.531Z,94.10
2018-07-08T04:08:54.606Z,93.80
2018-07-08T04:10:56.689Z,94.00
2018-07-08T04:12:59.182Z,93.40
2018-07-08T04:15:01.276Z,93.50
2018-07-08T04:17:03.348Z,93.50
2018-07-08T04:19:05.500Z,93.90
2018-07-08T04:21:07.577Z,93.90
2018-07-08T04:23:09.698Z,93.60
2018-07-08T04:25:11.782Z,93.40
2018-07-08T04:27:13.858Z,93.50
2018-07-08T04:29:15.963Z,93.30
2018-07-08T04:31:18.045Z,93.70
2018-07-08T04:33:20.130Z,93.60
2018-07-08T04:35:22.192Z,93.80
2018-07-08T04:37:24.253Z,93.50
2018-07-08T04:39:26.375Z,93.60
2018-07-08T04:41:28.480Z,92.90
2018-07-08T04:43:30.598Z,93.40
2018-07-08T04:45:32.705Z,93.60
2018-07-08T04:47:34.778Z,93.20
2018-07-08T04:49:36.859Z,93.10
2018-07-08T04:51:38.993Z,93.40
2018-07-08T04:55:43.255Z,93.20
2018-07-08T04:57:45.344Z,93.30
2018-07-08T04:59:47.525Z,93.10
2018-07-08T05:01:49.712Z,93.00
2018-07-08T05:03:51.795Z,92.10
2018-07-08T05:05:53.899Z,92.90
2018-07-08T05:07:55.986Z,92.90
2018-07-08T05:09:58.064Z,92.60
2018-07-08T05:12:00.153Z,92.70
2018-07-08T05:14:02.241Z,92.30
2018-07-08T05:16:04.664Z,92.30
2018-07-08T05:18:06.988Z,91.20
2018-07-08T05:20:09.082Z,91.20
2018-07-08T05:22:11.382Z,91.70
2018-07-08T05:24:13.949Z,90.80
2018-07-08T05:26:16.050Z,91.10
2018-07-08T05:28:18.154Z,91.90
2018-07-08T05:30:20.263Z,91.80
2018-07-08T05:32:22.352Z,91.30
2018-07-08T05:34:24.513Z,91.10
2018-07-08T05:36:26.605Z,91.20
2018-07-08T05:38:28.694Z,91.30
2018-07-08T05:40:30.831Z,91.10
2018-07-08T05:42:32.930Z,91.30
2018-07-08T05:44:35.056Z,90.80
2018-07-08T05:46:37.102Z,90.40
2018-07-08T05:48:39.209Z,90.40
2018-07-08T05:50:41.284Z,89.80
2018-07-08T05:52:43.397Z,90.40
2018-07-08T05:54:45.468Z,88.80
2018-07-08T05:56:47.542Z,89.60
2018-07-08T05:58:49.668Z,86.80
2018-07-08T06:00:51.757Z,86.60
2018-07-08T06:04:55.991Z,87.10
2018-07-08T06:09:00.221Z,82.90
2018-07-08T06:11:02.333Z,83.60
2018-07-08T06:13:04.539Z,82.90
2018-07-08T06:15:06.657Z,83.70
2018-07-08T06:17:08.762Z,83.70
2018-07-08T06:19:10.847Z,82.70
2018-07-08T06:21:12.973Z,81.20
2018-07-08T06:23:15.094Z,80.40
2018-07-08T06:25:17.265Z,79.60
2018-07-08T06:27:19.369Z,80.10
2018-07-08T06:29:21.453Z,76.40
2018-07-08T06:31:23.545Z,75.80
2018-07-08T06:33:25.620Z,75.60
2018-07-08T06:35:28.869Z,73.90
2018-07-08T06:37:30.921Z,70.80
2018-07-08T06:39:33.003Z,70.80
2018-07-08T06:41:35.085Z,69.30
2018-07-08T06:43:37.157Z,71.50
2018-07-08T06:45:39.342Z,68.50
2018-07-08T06:47:41.360Z,66.80
2018-07-08T06:49:43.452Z,64.70
2018-07-08T06:51:45.536Z,68.50
2018-07-08T06:53:47.597Z,65.60
2018-07-08T06:55:49.733Z,60.50
2018-07-08T06:57:51.926Z,60.70
2018-07-08T06:59:53.925Z,61.20
2018-07-08T07:01:56.002Z,60.50
2018-07-08T07:03:58.111Z,60.30
2018-07-08T07:06:00.222Z,58.30
2018-07-08T07:08:02.332Z,56.40
2018-07-08T07:10:04.421Z,56.80
2018-07-08T07:12:06.807Z,55.50
2018-07-08T07:14:08.894Z,53.70
2018-07-08T07:16:10.993Z,54.90
2018-07-08T07:18:13.074Z,50.40
2018-07-08T07:20:15.173Z,52.90
2018-07-08T07:22:17.252Z,48.50
2018-07-08T07:24:19.344Z,45.20
2018-07-08T07:26:21.416Z,47.70
2018-07-08T07:28:23.489Z,44.20
2018-07-08T07:30:25.551Z,45.70
2018-07-08T07:32:27.645Z,44.20
2018-07-08T07:34:29.750Z,42.50
2018-07-08T07:36:31.818Z,45.40
2018-07-08T07:38:33.913Z,42.40
2018-07-08T07:40:35.985Z,41.40
2018-07-08T07:42:38.058Z,40.00
2018-07-08T07:44:40.116Z,37.60
2018-07-08T07:46:43.514Z,38.20
2018-07-08T07:48:45.793Z,33.70
2018-07-08T07:50:47.884Z,34.00
2018-07-08T07:52:49.966Z,34.70
2018-07-08T07:54:52.042Z,36.00
2018-07-08T07:56:54.156Z,34.00
2018-07-08T07:58:56.269Z,33.90
2018-07-08T08:00:58.288Z,32.50
2018-07-08T08:03:00.410Z,30.00
2018-07-08T08:05:02.485Z,29.70
2018-07-08T08:07:04.887Z,29.10
2018-07-08T08:09:07.241Z,29.50
2018-07-08T08:11:09.308Z,27.80
2018-07-08T08:13:11.376Z,28.20
2018-07-08T08:15:13.442Z,27.30
2018-07-08T08:17:15.488Z,27.80
2018-07-08T08:19:17.577Z,27.20
2018-07-08T08:21:19.634Z,27.00
2018-07-08T08:23:21.725Z,25.60
2018-07-08T08:25:23.806Z,24.00
2018-07-08T08:27:25.856Z,22.00
2018-07-08T08:29:27.905Z,24.50
2018-07-08T08:31:29.993Z,25.20
2018-07-08T08:33:32.084Z,23.40
2018-07-08T08:35:34.160Z,22.00
2018-07-08T08:37:38.264Z,21.50
2018-07-08T08:39:40.433Z,22.20
2018-07-08T08:41:42.524Z,22.30
2018-07-08T08:43:44.615Z,21.70
2018-07-08T08:45:46.652Z,22.00
2018-07-08T08:47:48.721Z,23.40
2018-07-08T08:49:51.517Z,23.10
2018-07-08T08:51:54.195Z,22.30
2018-07-08T08:56:06.358Z,20.20
2018-07-08T08:58:08.408Z,20.20
2018-07-08T09:00:11.904Z,20.80
2018-07-08T09:02:13.988Z,19.90
2018-07-08T09:04:16.051Z,20.60
2018-07-08T09:06:18.110Z,20.90
2018-07-08T09:10:22.297Z,18.80
2018-07-08T09:12:24.396Z,17.70
2018-07-08T09:14:26.472Z,19.10
2018-07-08T09:16:28.525Z,19.70
2018-07-08T09:18:30.618Z,18.60
2018-07-08T09:20:32.656Z,17.00
2018-07-08T09:22:34.753Z,17.60
2018-07-08T09:24:36.812Z,16.00
2018-07-08T09:26:38.865Z,18.50
2018-07-08T09:28:40.937Z,15.70
2018-07-08T09:30:42.960Z,15.20
2018-07-08T09:32:45.001Z,15.10
2018-07-08T09:34:47.050Z,16.50
2018-07-08T09:36:49.173Z,16.00
2018-07-08T09:38:51.372Z,15.20
2018-07-08T09:40:53.337Z,15.70
2018-07-08T09:42:55.404Z,17.10
2018-07-08T09:44:57.480Z,13.70
2018-07-08T09:46:59.543Z,15.20
2018-07-08T09:49:01.991Z,15.30
2018-07-08T09:51:04.082Z,13.40
2018-07-08T09:53:06.152Z,13.90
2018-07-08T09:55:08.342Z,12.30
2018-07-08T09:57:10.379Z,13.20
2018-07-08T09:59:12.467Z,12.80
2018-07-08T10:01:14.529Z,10.80
2018-07-08T10:03:16.585Z,11.30
2018-07-08T10:05:18.681Z,11.00
2018-07-08T10:07:20.783Z,12.30
2018-07-08T10:09:23.841Z,11.30
2018-07-08T10:11:25.903Z,11.40
2018-07-08T10:13:28.126Z,9.70
2018-07-08T10:15:30.172Z,9.90
2018-07-08T10:17:32.275Z,10.60
2018-07-08T10:19:34.388Z,9.70
2018-07-08T10:21:36.440Z,10.10
2018-07-08T10:23:38.537Z,10.00
2018-07-08T10:25:40.681Z,8.90
2018-07-08T10:27:54.130Z,9.70
2018-07-08T10:29:57.181Z,11.60
2018-07-08T10:31:59.253Z,9.40
2018-07-08T10:34:01.336Z,7.60
2018-07-08T10:36:04.056Z,7.60
2018-07-08T10:38:06.936Z,8.80
2018-07-08T10:40:09.064Z,7.50
2018-07-08T10:42:11.171Z,8.40
2018-07-08T10:44:13.281Z,11.00
2018-07-08T10:46:15.360Z,7.60
2018-07-08T10:48:17.424Z,9.50
2018-07-08T10:50:19.624Z,7.00
2018-07-08T10:52:21.714Z,7.80
2018-07-08T10:54:23.806Z,7.20
2018-07-08T10:56:25.904Z,6.60
2018-07-08T10:58:28.000Z,4.90
2018-07-08T11:00:30.153Z,6.50
2018-07-08T11:04:34.421Z,6.70
2018-07-08T11:06:36.545Z,6.40
2018-07-08T11:08:38.651Z,5.70
2018-07-08T11:10:40.795Z,6.60
2018-07-08T11:12:42.865Z,6.60
2018-07-08T11:14:44.920Z,6.10
2018-07-08T11:16:47.028Z,5.10
2018-07-08T11:18:49.093Z,6.90
2018-07-08T11:20:51.233Z,6.30
2018-07-08T11:22:53.228Z,4.90
2018-07-08T11:24:55.301Z,3.40
2018-07-08T11:26:57.349Z,4.10
2018-07-08T11:28:59.501Z,5.70
2018-07-08T11:31:01.563Z,5.50
2018-07-08T11:33:03.794Z,5.50
2018-07-08T11:35:06.807Z,6.80
2018-07-08T11:37:08.886Z,4.40
2018-07-08T11:39:10.966Z,5.70
2018-07-08T11:41:13.066Z,4.80
2018-07-08T11:43:15.230Z,4.90
2018-07-08T11:45:17.445Z,4.50
2018-07-08T11:47:19.447Z,4.40
2018-07-08T11:49:21.584Z,2.70
2018-07-08T11:51:23.635Z,4.40
2018-07-08T11:53:25.746Z,3.70
2018-07-08T11:55:27.868Z,3.50
2018-07-08T11:57:29.884Z,1.60
2018-07-08T11:59:31.961Z,1.60
2018-07-08T12:01:34.037Z,2.50
2018-07-08T12:03:36.105Z,2.90
2018-07-08T12:05:38.249Z,3.00
2018-07-08T12:07:40.305Z,2.60
2018-07-08T12:09:42.393Z,2.60
2018-07-08T12:11:44.454Z,2.30
2018-07-08T12:13:46.520Z,2.90
2018-07-08T12:15:48.624Z,2.20
2018-07-08T12:17:50.677Z,1.30
2018-07-08T12:19:53.214Z,4.60
2018-07-08T12:21:55.295Z,1.30
2018-07-08T12:23:57.328Z,2.20
2018-07-08T12:25:59.411Z,2.80
2018-07-08T12:28:01.825Z,1.00
2018-07-08T12:30:03.910Z,2.40
2018-07-08T12:32:05.994Z,1.00
2018-07-08T12:34:08.069Z,1.00
2018-07-08T12:36:10.125Z,1.00
2018-07-08T12:38:12.194Z,1.00
2018-07-08T12:40:14.253Z,1.00
2018-07-08T12:42:16.335Z,1.00
2018-07-08T12:44:18.482Z,1.00
2018-07-08T12:46:20.608Z,1.00
2018-07-08T12:48:22.729Z,1.00
2018-07-08T12:50:24.833Z,1.00
2018-07-08T12:52:27.001Z,1.00
2018-07-08T12:54:29.141Z,1.00
2018-07-08T12:56:31.233Z,1.00
2018-07-08T12:58:33.400Z,1.00
2018-07-08T13:00:35.473Z,1.00
2018-07-08T13:02:37.586Z,1.00
2018-07-08T13:04:39.675Z,1.00
2018-07-08T13:06:41.841Z,1.00
2018-07-08T13:08:43.899Z,1.00
2018-07-08T13:10:46.065Z,1.00
2018-07-08T13:12:48.194Z,1.00
2018-07-08T13:14:50.275Z,1.00
2018-07-08T13:16:52.453Z,1.00
2018-07-08T13:18:54.684Z,1.00
2018-07-08T13:20:56.813Z,1.00
2018-07-08T13:22:58.949Z,1.00
2018-07-08T13:25:01.125Z,1.00
2018-07-08T13:27:03.338Z,1.00
2018-07-08T13:29:05.657Z,1.00
2018-07-08T13:31:07.721Z,1.00
2018-07-08T13:33:09.794Z,1.00
2018-07-08T13:35:11.862Z,1.00
2018-07-08T13:37:13.953Z,1.00
2018-07-08T13:39:16.139Z,1.00
2018-07-08T13:41:18.188Z,1.00
2018-07-08T13:43:20.280Z,1.00
2018-07-08T13:45:22.340Z,1.00
2018-07-08T13:47:24.440Z,1.00
2018-07-08T13:49:26.477Z,1.00
2018-07-08T13:51:28.593Z,1.00
2018-07-08T13:53:31.210Z,1.00
2018-07-08T13:55:33.316Z,1.00
2018-07-08T13:57:35.382Z,1.00
2018-07-08T13:59:37.426Z,1.80
2018-07-08T14:03:41.675Z,1.00
2018-07-08T14:05:43.832Z,1.00
2018-07-08T14:07:45.919Z,1.00
2018-07-08T14:09:48.006Z,1.00
2018-07-08T14:11:50.100Z,1.00
2018-07-08T14:13:52.231Z,1.00
2018-07-08T14:15:54.289Z,1.00
2018-07-08T14:17:56.420Z,1.00
2018-07-08T14:19:58.490Z,1.00
2018-07-08T14:22:00.565Z,1.00
2018-07-08T14:24:02.638Z,1.00
2018-07-08T14:26:04.699Z,1.00
2018-07-08T14:28:06.772Z,1.00
2018-07-08T14:30:08.851Z,1.00
2018-07-08T14:32:10.933Z,1.00
2018-07-08T14:34:13.223Z,1.00
2018-07-08T14:36:15.270Z,1.00
2018-07-08T14:38:17.322Z,1.00
2018-07-08T14:40:19.402Z,1.00
2018-07-08T14:42:21.453Z,1.00
2018-07-08T14:44:23.543Z,1.00
2018-07-08T14:46:25.624Z,1.00
2018-07-08T14:48:27.683Z,1.00
2018-07-08T14:50:29.856Z,1.00
2018-07-08T14:52:31.969Z,1.00
2018-07-08T14:54:34.078Z,1.00
2018-07-08T14:56:36.153Z,1.00
2018-07-08T14:58:38.217Z,1.00
2018-07-08T15:00:40.277Z,1.00
2018-07-08T15:02:42.354Z,1.00
2018-07-08T15:04:44.439Z,1.00
2018-07-08T15:06:46.481Z,1.00
2018-07-08T15:08:48.537Z,1.00
2018-07-08T15:10:50.650Z,1.00
2018-07-08T15:12:52.734Z,1.00
2018-07-08T15:14:54.801Z,1.00
2018-07-08T15:16:56.895Z,1.00
2018-07-08T15:18:59.085Z,1.00
2018-07-08T15:21:01.270Z,1.00
2018-07-08T15:23:03.302Z,1.00
2018-07-08T15:25:05.382Z,1.00
2018-07-08T15:27:07.480Z,1.00
2018-07-08T15:29:09.553Z,1.00
2018-07-08T15:31:11.649Z,1.00
2018-07-08T15:33:13.722Z,1.00
2018-07-08T15:35:15.817Z,1.00
2018-07-08T15:37:17.905Z,1.00
2018-07-08T15:39:32.003Z,1.00
2018-07-08T15:41:34.266Z,1.00
2018-07-08T15:43:36.308Z,1.00
2018-07-08T15:45:38.369Z,1.00
2018-07-08T15:47:40.440Z,1.00
2018-07-08T15:49:42.537Z,1.00
2018-07-08T15:51:44.545Z,1.00
2018-07-08T15:55:48.754Z,1.00
2018-07-08T15:57:51.407Z,1.00
2018-07-08T15:59:53.493Z,1.00
2018-07-08T16:01:55.578Z,1.00
2018-07-08T16:08:02.938Z,1.00
2018-07-08T16:10:05.306Z,1.00
2018-07-08T16:12:07.363Z,1.00
2018-07-08T16:14:09.462Z,1.00
2018-07-08T16:16:11.545Z,1.00
2018-07-08T16:18:13.798Z,1.00
2018-07-08T16:20:15.829Z,1.00
2018-07-08T16:22:17.933Z,1.00
2018-07-08T16:24:20.016Z,1.00
2018-07-08T16:26:22.193Z,1.00
2018-07-08T16:28:24.257Z,1.00
2018-07-08T16:30:26.360Z,1.20
2018-07-08T16:32:28.548Z,1.00
2018-07-08T16:34:31.104Z,1.20
2018-07-08T16:36:33.229Z,1.00
2018-07-08T16:38:35.323Z,1.60
2018-07-08T16:40:37.413Z,1.00
2018-07-08T16:44:41.722Z,1.70
2018-07-08T16:46:43.866Z,1.00
2018-07-08T16:48:45.987Z,1.20
2018-07-08T16:50:48.132Z,1.00
2018-07-08T16:52:50.256Z,1.00
2018-07-08T16:54:52.719Z,1.10
2018-07-08T16:56:54.814Z,1.00
2018-07-08T17:00:59.296Z,2.30
2018-07-08T17:03:01.424Z,2.20
2018-07-08T17:05:03.697Z,2.20
2018-07-08T17:07:06.080Z,3.20
2018-07-08T17:09:09.328Z,2.30
2018-07-08T17:11:11.535Z,3.10
2018-07-08T17:13:13.721Z,2.00
2018-07-08T17:15:15.918Z,3.40
2018-07-08T17:17:18.063Z,3.10
2018-07-08T17:19:20.124Z,1.60
2018-07-08T17:21:22.200Z,1.20
2018-07-08T17:23:24.349Z,2.40
2018-07-08T17:25:26.394Z,1.60
2018-07-08T17:27:28.483Z,1.30
2018-07-08T17:29:30.621Z,1.90
2018-07-08T17:31:32.747Z,1.80
2018-07-08T17:33:34.939Z,1.50
2018-07-08T17:35:36.973Z,1.60
2018-07-08T17:39:41.230Z,3.30
2018-07-08T17:41:43.378Z,2.70
2018-07-08T17:43:45.476Z,3.00
2018-07-08T17:45:47.601Z,3.30
2018-07-08T17:47:49.757Z,2.70
2018-07-08T17:49:51.764Z,2.10
2018-07-08T17:51:53.930Z,4.30
2018-07-08T17:53:56.080Z,3.10
2018-07-08T17:55:58.165Z,3.40
2018-07-08T17:58:00.359Z,2.90
2018-07-08T18:02:04.659Z,1.90
2018-07-08T18:04:06.794Z,3.00
2018-07-08T18:06:08.918Z,3.20
2018-07-08T18:08:10.997Z,2.70
2018-07-08T18:10:13.077Z,3.40
2018-07-08T18:12:15.215Z,3.70
2018-07-08T18:14:17.409Z,3.70
2018-07-08T18:16:19.688Z,4.20
2018-07-08T18:18:21.869Z,3.00
2018-07-08T18:20:24.004Z,3.10
2018-07-08T18:22:26.127Z,2.70
2018-07-08T18:24:28.245Z,3.30
2018-07-08T18:26:31.050Z,3.60
2018-07-08T18:28:33.242Z,3.10
2018-07-08T18:30:36.228Z,3.20
2018-07-08T18:32:38.585Z,3.60
2018-07-08T18:34:40.750Z,3.50
2018-07-08T18:36:43.282Z,4.80
2018-07-08T18:38:45.497Z,4.00
2018-07-08T18:40:47.688Z,4.80
2018-07-08T18:42:49.833Z,5.00
2018-07-08T18:44:51.940Z,5.40
2018-07-08T18:46:54.006Z,5.60
2018-07-08T18:48:56.105Z,5.20
2018-07-08T18:50:58.225Z,5.60
2018-07-08T18:53:00.334Z,6.10
2018-07-08T18:55:02.498Z,6.70
2018-07-08T18:57:04.650Z,7.70
2018-07-08T18:59:06.711Z,7.40
2018-07-08T19:01:08.855Z,8.60
2018-07-08T19:03:10.924Z,8.50
2018-07-08T19:05:13.008Z,8.40
2018-07-08T19:07:15.110Z,9.00
2018-07-08T19:09:17.234Z,9.30
2018-07-08T19:11:19.362Z,9.60
2018-07-08T19:13:21.473Z,10.20
2018-07-08T19:15:23.582Z,10.40
2018-07-08T19:17:25.648Z,10.80
2018-07-08T19:19:27.736Z,11.00
2018-07-08T19:21:29.841Z,11.20
2018-07-08T19:23:31.909Z,11.40
2018-07-08T19:25:33.996Z,12.20
2018-07-08T19:27:36.732Z,12.50
2018-07-08T19:29:38.808Z,12.20
2018-07-08T19:31:40.897Z,12.70
2018-07-08T19:33:42.998Z,12.70
2018-07-08T19:35:45.104Z,12.70
2018-07-08T19:37:47.183Z,12.60
2018-07-08T19:39:49.303Z,12.70
2018-07-08T19:41:51.421Z,13.40
2018-07-08T19:43:53.521Z,13.70
2018-07-08T19:45:55.634Z,14.40
2018-07-08T19:47:57.739Z,13.70
2018-07-08T19:49:59.882Z,13.90
2018-07-08T19:52:01.951Z,13.90
2018-07-08T19:54:04.006Z,14.80
2018-07-08T19:56:06.098Z,14.70
2018-07-08T19:58:08.160Z,14.80
2018-07-08T20:00:10.210Z,14.30
2018-07-08T20:02:12.338Z,15.50
2018-07-08T20:04:14.425Z,15.20
2018-07-08T20:06:16.462Z,15.30
2018-07-08T20:08:18.540Z,16.90
2018-07-08T20:10:20.660Z,16.10
2018-07-08T20:12:22.720Z,17.10
2018-07-08T20:14:24.853Z,16.80
2018-07-08T20:16:27.051Z,17.50
2018-07-08T20:18:29.129Z,18.30
2018-07-08T20:20:31.249Z,18.60
2018-07-08T20:22:33.436Z,17.70
2018-07-08T20:24:35.509Z,18.10
2018-07-08T20:26:37.588Z,19.00
2018-07-08T20:28:40.628Z,18.30
2018-07-08T20:30:42.708Z,18.90
2018-07-08T20:32:45.934Z,18.70
2018-07-08T20:34:48.057Z,19.60
2018-07-08T20:36:50.310Z,19.90
2018-07-08T20:38:52.374Z,19.20
2018-07-08T20:40:54.749Z,19.80
2018-07-08T20:42:56.795Z,20.50
2018-07-08T20:44:58.865Z,20.60
2018-07-08T20:47:01.174Z,21.60
2018-07-08T20:49:03.267Z,20.60
2018-07-08T20:51:05.345Z,22.30
2018-07-08T20:53:07.399Z,21.00
2018-07-08T20:55:09.449Z,21.30
2018-07-08T20:57:11.502Z,21.80
2018-07-08T20:59:13.541Z,22.10
2018-07-08T21:01:15.592Z,22.70
2018-07-08T21:03:17.708Z,23.10
2018-07-08T21:05:20.755Z,22.40
2018-07-08T21:07:22.809Z,23.50
2018-07-08T21:09:24.907Z,23.90
2018-07-08T21:11:27.557Z,24.40
2018-07-08T21:13:29.598Z,24.90
2018-07-08T21:15:31.637Z,24.50
2018-07-08T21:17:33.709Z,25.20
2018-07-08T21:19:35.804Z,25.70
2018-07-08T21:21:37.993Z,25.80
2018-07-08T21:25:43.561Z,26.20
2018-07-08T21:27:46.452Z,27.70
2018-07-08T21:29:48.646Z,27.80
2018-07-08T21:31:50.714Z,27.80
2018-07-08T21:33:52.788Z,27.20
2018-07-08T21:35:54.894Z,28.10
2018-07-08T21:37:56.936Z,28.40
2018-07-08T21:39:58.957Z,28.60
2018-07-08T21:42:01.034Z,30.20
2018-07-08T21:44:03.074Z,31.20
2018-07-08T21:46:06.108Z,30.00
2018-07-08T21:48:08.451Z,31.20
2018-07-08T21:50:11.033Z,31.20
2018-07-08T21:52:13.117Z,31.20
2018-07-08T21:54:15.418Z,31.30
2018-07-08T21:56:19.098Z,30.60
2018-07-08T21:58:21.139Z,30.90
2018-07-08T22:00:32.437Z,31.80
2018-07-08T22:02:34.522Z,31.50
2018-07-08T22:04:36.544Z,33.10
2018-07-08T22:06:38.678Z,33.20
2018-07-08T22:08:40.714Z,33.10
2018-07-08T22:10:42.769Z,34.70
2018-07-08T22:12:44.946Z,34.80
2018-07-08T22:14:47.252Z,34.90
2018-07-08T22:16:49.403Z,34.70
2018-07-08T22:18:51.464Z,35.80
2018-07-08T22:20:54.408Z,35.70
2018-07-08T22:22:56.456Z,35.70
2018-07-08T22:24:59.356Z,36.20
2018-07-08T22:27:01.648Z,36.80
2018-07-08T22:29:03.712Z,35.80
2018-07-08T22:31:05.829Z,36.40
2018-07-08T22:33:08.079Z,36.30
2018-07-08T22:35:10.206Z,38.10
2018-07-08T22:37:12.324Z,36.90
2018-07-08T22:39:14.423Z,38.80
2018-07-08T22:41:16.453Z,38.50
2018-07-08T22:43:18.537Z,38.90
2018-07-08T22:45:20.644Z,39.50
2018-07-08T22:47:22.810Z,39.60
2018-07-08T22:49:24.965Z,39.90
2018-07-08T22:51:27.058Z,40.30
2018-07-08T22:53:29.118Z,41.60
2018-07-08T22:55:31.280Z,42.60
2018-07-08T22:57:33.345Z,42.40
2018-07-08T22:59:46.945Z,43.00
2018-07-08T23:02:00.533Z,43.00
2018-07-08T23:04:02.657Z,43.60
2018-07-08T23:06:04.764Z,43.10
2018-07-08T23:08:06.832Z,42.70
2018-07-08T23:10:09.705Z,42.70
2018-07-08T23:12:11.764Z,42.40
2018-07-08T23:14:13.853Z,42.50
2018-07-08T23:16:15.993Z,42.70
2018-07-08T23:18:18.100Z,43.50
2018-07-08T23:20:20.174Z,42.70
2018-07-08T23:22:34.102Z,42.70
2018-07-08T23:24:36.124Z,44.60
2018-07-08T23:26:38.156Z,45.90
2018-07-08T23:28:40.208Z,47.40
2018-07-08T23:30:42.335Z,49.20
2018-07-08T23:32:44.466Z,49.60
2018-07-08T23:34:46.501Z,53.40
2018-07-08T23:36:48.550Z,54.00
2018-07-08T23:38:50.598Z,53.40
2018-07-08T23:40:52.647Z,53.60
2018-07-08T23:42:54.726Z,54.40
2018-07-08T23:44:56.770Z,54.70
2018-07-08T23:49:00.882Z,51.90
2018-07-08T23:51:02.980Z,51.30
2018-07-08T23:53:05.034Z,51.60
2018-07-08T23:55:07.088Z,51.10
2018-07-08T23:57:09.135Z,53.10
2018-07-08T23:59:11.204Z,51.90
